Date,TemperatureHighF,TemperatureAvgF,TemperatureLowF,DewpointHighF,DewpointAvgF,DewpointLowF,HumidityHigh,HumidityAvg,HumidityLow,PressureMaxIn,PressureMinIn,WindSpeedMaxMPH,WindSpeedAvgMPH,GustSpeedMaxMPH,PrecipitationSumIn
2013-6-1,68.3,56.9,51.0,60.1,52.2,46.2,98,85,73,29.92,29.44,15,2,17,0.00
2013-6-2,67.7,56.7,45.7,49.5,45.0,41.1,91,67,44,30.04,29.92,12,1,12,0.00
2013-6-3,67.8,57.5,43.6,48.9,45.5,41.8,96,67,45,29.98,29.84,18,4,21,0.00
2013-6-4,60.7,42.9,0.0,54.2,39.1,0.0,94,63,63,29.99,29.85,16,3,16,0.39
2013-6-5,64.7,38.7,0.0,56.0,34.8,0.0,93,52,69,29.93,29.86,6,1,9,0.00
2013-6-6,58.2,53.7,49.9,53.0,50.3,48.0,95,89,81,29.99,29.91,6,1,9,0.00
2013-6-7,63.9,57.1,51.5,53.7,51.4,49.5,94,82,65,29.99,29.83,5,0,9,0.00
2013-6-8,67.0,60.2,53.3,56.9,53.8,51.2,93,80,60,29.84,29.76,16,5,18,0.00
2013-6-9,60.5,58.0,56.0,57.7,56.2,54.2,97,94,80,29.78,29.66,16,5,19,0.58
2013-6-10,75.5,64.3,56.4,63.9,58.9,55.5,98,84,61,29.80,29.71,7,1,11,0.00
2013-6-11,77.7,65.8,58.8,68.3,61.7,57.8,98,87,61,29.86,29.69,10,1,11,0.01
2013-6-12,69.9,64.0,57.8,63.9,58.3,53.5,94,82,68,29.91,29.64,16,1,22,0.20
2013-6-13,76.8,69.0,54.7,60.5,56.7,51.7,90,67,49,30.04,29.92,9,1,11,0.00
2013-6-14,77.9,69.5,59.8,65.2,60.6,54.4,89,74,61,29.97,29.73,16,7,30,0.00
2013-6-15,82.2,71.4,61.1,67.7,59.9,51.0,97,70,38,29.82,29.73,9,2,15,0.00
2013-6-16,85.2,71.4,58.0,62.1,54.7,50.0,83,58,31,29.84,29.74,12,2,18,0.01
2013-6-17,81.0,70.1,57.4,62.6,58.6,54.5,91,68,48,29.92,29.78,13,1,13,0.00
2013-6-18,77.1,65.4,51.5,62.8,56.3,0.0,94,74,51,30.00,29.91,9,2,14,0.06
2013-6-19,84.3,68.6,0.0,65.6,58.9,0.0,88,71,42,29.94,29.78,12,3,14,0.00
2013-6-20,87.1,78.7,70.5,69.9,66.9,62.2,84,68,54,29.86,29.66,20,6,26,0.00
2013-6-21,81.5,69.5,60.9,70.0,64.4,59.2,96,84,65,29.96,29.58,21,5,29,1.17
2013-6-22,78.4,70.4,65.0,70.6,65.7,60.8,94,86,74,29.87,29.64,16,3,21,0.05
2013-6-23,80.7,72.2,64.2,69.1,65.7,61.6,97,81,57,29.77,29.40,17,4,20,0.96
2013-6-24,78.4,71.0,61.2,71.9,66.2,59.5,97,85,69,29.80,29.67,11,2,15,0.00
2013-6-25,84.5,75.2,65.6,75.3,70.1,63.5,94,85,71,29.70,29.55,18,5,20,0.00
2013-6-26,85.4,77.2,70.1,73.5,70.0,66.5,96,79,58,29.71,29.54,12,1,17,0.00
2013-6-27,84.4,76.3,68.3,66.6,63.6,57.6,90,67,46,29.76,29.70,17,2,17,0.00
2013-6-28,78.9,71.8,65.0,66.1,61.9,58.3,82,71,59,29.75,29.72,13,2,19,0.00
2013-6-29,78.6,69.6,62.9,65.2,59.3,52.5,95,72,48,29.92,29.71,10,2,16,0.11
2013-6-30,82.5,69.6,56.7,61.1,57.4,54.1,94,68,40,30.05,29.92,8,0,10,0.00